Morses Line, Vermont
Current Conditions -  °F | °C
As of 5:15 AM on Friday 24 Oct 2014 (Local Time) from KFSO Reporting Station
Haze Haze  
Wind Chill: 35°   Ceiling: 900
Heat Index: 40°   Visibility: 3mi
Dew Point: 40°   Wind: 9mph
Humidity: 97%   Direction: 360°N
Pressure: 29.86"   Gusts: NA
Location:  44.9656°N, 72.8975°W
Report Text: KFSO 240915Z AUTO 36008KT 3SM BR OVC009 05/04 A2986 RMK AO2 T00470042
Loading
Personal Weather Stations






























Interactive Weather Map
Tropical Storm Tracking
New forecast layout! Learn more

10-Day Weather Forecast

Advertisements
Track Severe Weather on mobile